Terminal Aerodrome Forecast
Issued by NWS Burlington, VT

Home | Current Version | Previous Version | Text Only | Print | Product List | Glossary On
Versions: 1 2 3 4 5 6 7 8 9 10 11 12 13 14 15 16 17 18 19 20 21 22 23
000
FTUS41 KBTV 030117 AAA
TAFBTV
TAF AMD
KBTV 030117Z 0301/0324 35006KT P6SM SCT035
     FM030600 04003KT P6SM SKC
      TEMPO 0306/0310 3SM BR SCT001
     FM031200 36005KT P6SM SKC=

USA.gov is the U.S. government's official web portal to all federal, state and local government web resources and services.